Cummings, North Dakota
Current Conditions -  °F | °C
As of 6:53 PM on Friday 24 Oct 2014 (Local Time) from KGFK Reporting Station
Scattered Clouds Scattered Clouds  
Wind Chill: 17°   Ceiling: Unl
Heat Index: 17°   Visibility: 10mi
Dew Point:   Wind: 12mph
Humidity: 32%   Direction: 270°W
Pressure: 29.8"   Gusts: 20mph
Location:  47.51°N, 97.08°W
Report Text: KGFK 242353Z 27010G17KT 10SM SCT250 17/00 A2980 RMK AO2 SLP096 T01670000 10233 20167 51021
Loading
Personal Weather Stations






























Interactive Weather Map
Tropical Storm Tracking
New forecast layout! Learn more

10-Day Weather Forecast

Advertisements
Track Severe Weather on mobile